sensor_id;sensor_type;location;lat;lon;timestamp;pressure;altitude;pressure_sealevel;temperature;humidity
72525;BME280;60547;48.502;8.996;2022-11-21T00:00:19;97271.88;;;4.68;90.00
72525;BME280;60547;48.502;8.996;2022-11-21T00:02:44;97268.38;;;4.64;90.26
72525;BME280;60547;48.502;8.996;2022-11-21T00:05:10;97256.53;;;4.67;90.59
72525;BME280;60547;48.502;8.996;2022-11-21T00:07:37;97265.25;;;4.62;90.80
72525;BME280;60547;48.502;8.996;2022-11-21T00:10:03;97253.44;;;4.62;90.24
72525;BME280;60547;48.502;8.996;2022-11-21T00:12:28;97246.75;;;4.63;90.54
72525;BME280;60547;48.502;8.996;2022-11-21T00:14:54;97250.59;;;4.69;90.75
72525;BME280;60547;48.502;8.996;2022-11-21T00:17:19;97241.59;;;4.65;90.68
72525;BME280;60547;48.502;8.996;2022-11-21T00:19:44;97241.59;;;4.65;90.17
72525;BME280;60547;48.502;8.996;2022-11-21T00:22:10;97241.56;;;4.68;90.39
72525;BME280;60547;48.502;8.996;2022-11-21T00:24:35;97235.03;;;4.55;90.77
72525;BME280;60547;48.502;8.996;2022-11-21T00:27:01;97224.28;;;4.64;91.05
72525;BME280;60547;48.502;8.996;2022-11-21T00:29:27;97226.34;;;4.57;90.48
72525;BME280;60547;48.502;8.996;2022-11-21T00:31:52;97208.34;;;4.48;90.10
72525;BME280;60547;48.502;8.996;2022-11-21T00:34:18;97196.19;;;4.46;90.65
72525;BME280;60547;48.502;8.996;2022-11-21T00:36:43;97188.44;;;4.37;90.76
72525;BME280;60547;48.502;8.996;2022-11-21T00:39:09;97182.59;;;4.32;91.13
72525;BME280;60547;48.502;8.996;2022-11-21T00:41:34;97174.06;;;4.22;91.06
72525;BME280;60547;48.502;8.996;2022-11-21T00:43:59;97156.81;;;4.18;91.19
72525;BME280;60547;48.502;8.996;2022-11-21T00:46:25;97145.81;;;4.18;91.32
72525;BME280;60547;48.502;8.996;2022-11-21T00:48:50;97152.03;;;4.22;91.36
72525;BME280;60547;48.502;8.996;2022-11-21T00:51:15;97167.38;;;4.24;91.47
72525;BME280;60547;48.502;8.996;2022-11-21T00:53:41;97170.56;;;4.18;91.45
72525;BME280;60547;48.502;8.996;2022-11-21T00:56:07;97170.13;;;4.24;91.63
72525;BME280;60547;48.502;8.996;2022-11-21T00:58:33;97180.03;;;4.17;91.62
72525;BME280;60547;48.502;8.996;2022-11-21T01:01:07;97181.22;;;4.16;91.18
72525;BME280;60547;48.502;8.996;2022-11-21T01:03:34;97180.75;;;4.21;91.20
72525;BME280;60547;48.502;8.996;2022-11-21T01:06:06;97185.50;;;4.21;91.51
72525;BME280;60547;48.502;8.996;2022-11-21T01:08:34;97196.47;;;4.25;91.22
72525;BME280;60547;48.502;8.996;2022-11-21T01:11:15;97180.34;;;4.23;91.16
72525;BME280;60547;48.502;8.996;2022-11-21T01:13:41;97189.72;;;4.29;91.19
72525;BME280;60547;48.502;8.996;2022-11-21T01:16:13;97181.03;;;4.31;91.46
72525;BME280;60547;48.502;8.996;2022-11-21T01:18:39;97162.28;;;4.22;91.66
72525;BME280;60547;48.502;8.996;2022-11-21T01:21:07;97162.97;;;4.30;92.02
72525;BME280;60547;48.502;8.996;2022-11-21T01:23:33;97162.03;;;4.40;92.02
72525;BME280;60547;48.502;8.996;2022-11-21T01:26:11;97171.41;;;4.46;92.03
72525;BME280;60547;48.502;8.996;2022-11-21T01:28:37;97151.75;;;4.44;91.49
72525;BME280;60547;48.502;8.996;2022-11-21T01:31:13;97150.94;;;4.47;91.75
72525;BME280;60547;48.502;8.996;2022-11-21T01:33:40;97145.41;;;4.47;91.81
72525;BME280;60547;48.502;8.996;2022-11-21T01:38:39;97150.78;;;4.58;91.05
72525;BME280;60547;48.502;8.996;2022-11-21T01:41:06;97142.88;;;4.60;91.18
72525;BME280;60547;48.502;8.996;2022-11-21T01:43:32;97136.84;;;4.68;91.55
72525;BME280;60547;48.502;8.996;2022-11-21T01:45:59;97120.06;;;4.59;91.09
72525;BME280;60547;48.502;8.996;2022-11-21T01:48:31;97129.53;;;4.58;91.32
72525;BME280;60547;48.502;8.996;2022-11-21T01:51:04;97125.16;;;4.61;90.79
72525;BME280;60547;48.502;8.996;2022-11-21T01:53:31;97122.72;;;4.66;91.27
72525;BME280;60547;48.502;8.996;2022-11-21T01:55:56;97125.47;;;4.66;91.27
72525;BME280;60547;48.502;8.996;2022-11-21T01:58:22;97119.94;;;4.66;91.46
72525;BME280;60547;48.502;8.996;2022-11-21T02:00:48;97126.91;;;4.74;91.70
72525;BME280;60547;48.502;8.996;2022-11-21T02:03:17;97125.00;;;4.71;91.59
72525;BME280;60547;48.502;8.996;2022-11-21T02:05:46;97125.00;;;4.71;92.05
72525;BME280;60547;48.502;8.996;2022-11-21T02:08:19;97116.25;;;4.76;92.09
72525;BME280;60547;48.502;8.996;2022-11-21T02:10:52;97125.34;;;4.73;92.72
72525;BME280;60547;48.502;8.996;2022-11-21T02:13:21;97119.91;;;4.70;92.95
72525;BME280;60547;48.502;8.996;2022-11-21T02:15:47;97111.22;;;4.71;93.25
72525;BME280;60547;48.502;8.996;2022-11-21T02:18:12;97118.34;;;4.69;93.12
72525;BME280;60547;48.502;8.996;2022-11-21T02:20:39;97124.22;;;4.71;93.24
72525;BME280;60547;48.502;8.996;2022-11-21T02:25:41;97120.72;;;4.67;92.00
72525;BME280;60547;48.502;8.996;2022-11-21T02:28:10;97117.56;;;4.68;92.29
72525;BME280;60547;48.502;8.996;2022-11-21T02:30:38;97119.13;;;4.69;92.79
72525;BME280;60547;48.502;8.996;2022-11-21T02:33:05;97103.69;;;4.75;92.76
72525;BME280;60547;48.502;8.996;2022-11-21T02:35:30;97107.25;;;4.72;92.78
72525;BME280;60547;48.502;8.996;2022-11-21T02:38:01;97097.81;;;4.73;92.77
72525;BME280;60547;48.502;8.996;2022-11-21T02:40:31;97106.84;;;4.74;92.76
72525;BME280;60547;48.502;8.996;2022-11-21T02:45:30;97104.94;;;4.71;93.12
72525;BME280;60547;48.502;8.996;2022-11-21T02:47:57;97111.22;;;4.71;92.96
72525;BME280;60547;48.502;8.996;2022-11-21T02:50:26;97115.13;;;4.74;93.15
72525;BME280;60547;48.502;8.996;2022-11-21T02:52:52;97112.78;;;4.72;92.90
72525;BME280;60547;48.502;8.996;2022-11-21T02:55:17;97110.38;;;4.74;92.76
72525;BME280;60547;48.502;8.996;2022-11-21T02:57:43;97098.63;;;4.70;92.77
72525;BME280;60547;48.502;8.996;2022-11-21T03:00:09;97100.88;;;4.79;92.42
72525;BME280;60547;48.502;8.996;2022-11-21T03:02:36;97103.63;;;4.79;92.96
72525;BME280;60547;48.502;8.996;2022-11-21T03:05:02;97087.63;;;4.70;93.41
72525;BME280;60547;48.502;8.996;2022-11-21T03:07:28;97091.50;;;4.73;93.24
72525;BME280;60547;48.502;8.996;2022-11-21T03:09:53;97090.72;;;4.72;93.55
72525;BME280;60547;48.502;8.996;2022-11-21T03:12:19;97083.72;;;4.68;93.51
72525;BME280;60547;48.502;8.996;2022-11-21T03:14:44;97098.63;;;4.70;93.63
72525;BME280;60547;48.502;8.996;2022-11-21T03:17:09;97101.69;;;4.76;93.75
72525;BME280;60547;48.502;8.996;2022-11-21T03:19:35;97105.28;;;4.73;93.51
72525;BME280;60547;48.502;8.996;2022-11-21T03:22:00;97101.75;;;4.72;91.81
72525;BME280;60547;48.502;8.996;2022-11-21T03:24:26;97095.31;;;4.56;91.78
72525;BME280;60547;48.502;8.996;2022-11-21T03:26:51;97093.25;;;4.63;91.32
72525;BME280;60547;48.502;8.996;2022-11-21T03:29:17;97097.34;;;4.51;91.29
72525;BME280;60547;48.502;8.996;2022-11-21T03:31:42;97096.69;;;4.44;91.72
72525;BME280;60547;48.502;8.996;2022-11-21T03:34:08;97096.63;;;4.47;91.40
72525;BME280;60547;48.502;8.996;2022-11-21T03:36:33;97085.66;;;4.44;91.11
72525;BME280;60547;48.502;8.996;2022-11-21T03:38:59;97082.53;;;4.42;91.50
72525;BME280;60547;48.502;8.996;2022-11-21T03:41:25;97096.78;;;4.37;91.27
72525;BME280;60547;48.502;8.996;2022-11-21T03:44:01;97093.09;;;4.47;90.52
72525;BME280;60547;48.502;8.996;2022-11-21T03:46:29;97096.69;;;4.44;91.18
72525;BME280;60547;48.502;8.996;2022-11-21T03:48:55;97082.19;;;4.40;90.50
72525;BME280;60547;48.502;8.996;2022-11-21T03:51:20;97090.44;;;4.40;90.81
72525;BME280;60547;48.502;8.996;2022-11-21T03:53:46;97077.13;;;4.35;90.62
72525;BME280;60547;48.502;8.996;2022-11-21T03:56:12;97080.16;;;4.44;90.60
72525;BME280;60547;48.502;8.996;2022-11-21T03:58:38;97083.38;;;4.39;90.06
72525;BME280;60547;48.502;8.996;2022-11-21T04:01:04;97079.88;;;4.35;90.33
72525;BME280;60547;48.502;8.996;2022-11-21T04:03:29;97076.34;;;4.34;90.53
72525;BME280;60547;48.502;8.996;2022-11-21T04:05:55;97072.63;;;4.21;90.01
72525;BME280;60547;48.502;8.996;2022-11-21T04:08:21;97074.22;;;4.18;90.69
72525;BME280;60547;48.502;8.996;2022-11-21T04:10:47;97086.78;;;4.19;90.81
72525;BME280;60547;48.502;8.996;2022-11-21T04:13:13;97075.72;;;4.23;91.14
72525;BME280;60547;48.502;8.996;2022-11-21T04:15:42;97073.28;;;4.29;90.92
72525;BME280;60547;48.502;8.996;2022-11-21T04:18:08;97072.63;;;4.21;90.29
72525;BME280;60547;48.502;8.996;2022-11-21T04:20:34;97060.81;;;4.20;90.29
72525;BME280;60547;48.502;8.996;2022-11-21T04:22:59;97063.31;;;4.11;90.53
72525;BME280;60547;48.502;8.996;2022-11-21T04:25:25;97062.53;;;4.11;90.51
72525;BME280;60547;48.502;8.996;2022-11-21T04:27:50;97063.25;;;4.15;90.35
72525;BME280;60547;48.502;8.996;2022-11-21T04:30:16;97055.41;;;4.13;89.99
72525;BME280;60547;48.502;8.996;2022-11-21T04:32:41;97073.53;;;4.11;90.16
72525;BME280;60547;48.502;8.996;2022-11-21T04:35:08;97068.88;;;4.08;89.59
72525;BME280;60547;48.502;8.996;2022-11-21T04:37:33;97078.47;;;3.96;90.23
72525;BME280;60547;48.502;8.996;2022-11-21T04:39:59;97079.66;;;3.95;90.53
72525;BME280;60547;48.502;8.996;2022-11-21T04:42:24;97078.19;;;3.87;90.92
72525;BME280;60547;48.502;8.996;2022-11-21T04:44:50;97083.69;;;3.87;90.36
72525;BME280;60547;48.502;8.996;2022-11-21T04:47:15;97075.56;;;3.76;90.76
72525;BME280;60547;48.502;8.996;2022-11-21T04:49:41;97084.13;;;3.82;91.20
72525;BME280;60547;48.502;8.996;2022-11-21T04:52:06;97082.59;;;3.81;91.12
72525;BME280;60547;48.502;8.996;2022-11-21T04:54:31;97072.03;;;3.76;90.45
72525;BME280;60547;48.502;8.996;2022-11-21T04:56:57;97066.25;;;3.67;90.77
72525;BME280;60547;48.502;8.996;2022-11-21T04:59:22;97058.81;;;3.64;91.36
72525;BME280;60547;48.502;8.996;2022-11-21T05:01:48;97068.66;;;3.61;91.27
72525;BME280;60547;48.502;8.996;2022-11-21T05:04:13;97069.44;;;3.62;90.99
72525;BME280;60547;48.502;8.996;2022-11-21T05:06:39;97065.97;;;3.58;90.79
72525;BME280;60547;48.502;8.996;2022-11-21T05:09:04;97068.72;;;3.58;90.96
72525;BME280;60547;48.502;8.996;2022-11-21T05:11:29;97060.97;;;3.49;90.92
72525;BME280;60547;48.502;8.996;2022-11-21T05:14:13;97074.38;;;3.43;90.88
72525;BME280;60547;48.502;8.996;2022-11-21T05:16:40;97064.19;;;3.40;90.43
72525;BME280;60547;48.502;8.996;2022-11-21T05:19:05;97054.38;;;3.39;91.04
72525;BME280;60547;48.502;8.996;2022-11-21T05:21:32;97061.75;;;3.49;91.15
72525;BME280;60547;48.502;8.996;2022-11-21T05:23:57;97064.13;;;3.47;90.45
72525;BME280;60547;48.502;8.996;2022-11-21T05:26:23;97081.44;;;3.44;90.94
72525;BME280;60547;48.502;8.996;2022-11-21T05:28:48;97081.47;;;3.41;90.60
72525;BME280;60547;48.502;8.996;2022-11-21T05:31:13;97072.97;;;3.28;91.25
72525;BME280;60547;48.502;8.996;2022-11-21T05:33:39;97086.38;;;3.22;90.91
72525;BME280;60547;48.502;8.996;2022-11-21T05:36:05;97085.97;;;3.24;91.29
72525;BME280;60547;48.502;8.996;2022-11-21T05:38:30;97092.69;;;3.19;91.89
72525;BME280;60547;48.502;8.996;2022-11-21T05:40:55;97081.72;;;3.16;91.45
72525;BME280;60547;48.502;8.996;2022-11-21T05:43:21;97081.34;;;3.14;91.80
72525;BME280;60547;48.502;8.996;2022-11-21T05:46:05;97095.03;;;3.21;91.92
72525;BME280;60547;48.502;8.996;2022-11-21T05:48:30;97083.66;;;3.19;91.81
72525;BME280;60547;48.502;8.996;2022-11-21T05:50:56;97084.03;;;3.21;91.90
72525;BME280;60547;48.502;8.996;2022-11-21T05:53:21;97075.41;;;3.19;91.96
72525;BME280;60547;48.502;8.996;2022-11-21T05:55:46;97081.22;;;3.28;92.31
72525;BME280;60547;48.502;8.996;2022-11-21T05:58:12;97078.47;;;3.28;91.41
72525;BME280;60547;48.502;8.996;2022-11-21T06:00:38;97091.00;;;3.33;91.97
72525;BME280;60547;48.502;8.996;2022-11-21T06:03:04;97079.22;;;3.32;92.05
72525;BME280;60547;48.502;8.996;2022-11-21T06:05:49;97087.47;;;3.32;91.66
72525;BME280;60547;48.502;8.996;2022-11-21T06:08:14;97084.72;;;3.32;92.00
72525;BME280;60547;48.502;8.996;2022-11-21T06:10:40;97087.09;;;3.30;91.79
72525;BME280;60547;48.502;8.996;2022-11-21T06:13:05;97089.03;;;3.33;92.01
72525;BME280;60547;48.502;8.996;2022-11-21T06:15:57;97079.91;;;3.40;91.54
72525;BME280;60547;48.502;8.996;2022-11-21T06:18:23;97083.75;;;3.49;91.69
72525;BME280;60547;48.502;8.996;2022-11-21T06:20:49;97079.50;;;3.41;91.80
72525;BME280;60547;48.502;8.996;2022-11-21T06:23:14;97072.78;;;3.46;91.91
72525;BME280;60547;48.502;8.996;2022-11-21T06:25:41;97086.84;;;3.51;92.30
72525;BME280;60547;48.502;8.996;2022-11-21T06:28:07;97080.53;;;3.54;91.50
72525;BME280;60547;48.502;8.996;2022-11-21T06:30:32;97069.56;;;3.51;91.71
72525;BME280;60547;48.502;8.996;2022-11-21T06:32:58;97075.91;;;3.48;92.36
72525;BME280;60547;48.502;8.996;2022-11-21T06:35:24;97080.97;;;3.49;91.95
72525;BME280;60547;48.502;8.996;2022-11-21T06:37:49;97082.84;;;3.60;91.67
72525;BME280;60547;48.502;8.996;2022-11-21T06:40:14;97077.78;;;3.54;91.86
72525;BME280;60547;48.502;8.996;2022-11-21T06:42:40;97089.28;;;3.46;91.96
72525;BME280;60547;48.502;8.996;2022-11-21T06:45:05;97084.16;;;3.48;92.45
72525;BME280;60547;48.502;8.996;2022-11-21T06:47:34;97084.47;;;3.53;92.37
72525;BME280;60547;48.502;8.996;2022-11-21T06:49:59;97080.53;;;3.54;92.71
72525;BME280;60547;48.502;8.996;2022-11-21T06:52:25;97084.47;;;3.53;92.98
72525;BME280;60547;48.502;8.996;2022-11-21T06:54:51;97084.41;;;3.61;92.71
72525;BME280;60547;48.502;8.996;2022-11-21T06:57:16;97094.25;;;3.58;93.19
72525;BME280;60547;48.502;8.996;2022-11-21T06:59:41;97088.34;;;3.60;92.71
72525;BME280;60547;48.502;8.996;2022-11-21T07:02:11;97089.00;;;3.71;92.58
72525;BME280;60547;48.502;8.996;2022-11-21T07:04:37;97088.25;;;3.67;92.90
72525;BME280;60547;48.502;8.996;2022-11-21T07:07:02;97091.41;;;3.65;92.14
72525;BME280;60547;48.502;8.996;2022-11-21T07:09:28;97095.31;;;3.68;92.51
72525;BME280;60547;48.502;8.996;2022-11-21T07:11:53;97097.25;;;3.71;92.64
72525;BME280;60547;48.502;8.996;2022-11-21T07:14:19;97103.06;;;3.76;92.98
72525;BME280;60547;48.502;8.996;2022-11-21T07:16:44;97103.41;;;3.82;93.14
72525;BME280;60547;48.502;8.996;2022-11-21T07:19:10;97113.94;;;3.87;92.87
72525;BME280;60547;48.502;8.996;2022-11-21T07:21:36;97108.53;;;3.80;92.85
72525;BME280;60547;48.502;8.996;2022-11-21T07:24:01;97092.81;;;3.80;93.65
72525;BME280;60547;48.502;8.996;2022-11-21T07:26:27;97090.38;;;3.86;93.31
72525;BME280;60547;48.502;8.996;2022-11-21T07:28:52;97093.44;;;3.92;93.04
72525;BME280;60547;48.502;8.996;2022-11-21T07:31:18;97084.50;;;3.84;92.68
72525;BME280;60547;48.502;8.996;2022-11-21T07:33:43;97092.66;;;3.91;92.52
72525;BME280;60547;48.502;8.996;2022-11-21T07:36:10;97077.00;;;3.88;91.94
72525;BME280;60547;48.502;8.996;2022-11-21T07:38:36;97069.88;;;3.91;92.78
72525;BME280;60547;48.502;8.996;2022-11-21T07:41:01;97067.53;;;3.89;93.25
72525;BME280;60547;48.502;8.996;2022-11-21T07:43:27;97064.41;;;3.87;93.27
72525;BME280;60547;48.502;8.996;2022-11-21T07:45:52;97068.28;;;3.93;93.46
72525;BME280;60547;48.502;8.996;2022-11-21T07:48:18;97067.16;;;3.87;93.57
72525;BME280;60547;48.502;8.996;2022-11-21T07:50:43;97074.59;;;3.90;93.58
72525;BME280;60547;48.502;8.996;2022-11-21T07:53:09;97073.00;;;3.93;93.58
72525;BME280;60547;48.502;8.996;2022-11-21T07:55:35;97076.94;;;3.92;94.13
72525;BME280;60547;48.502;8.996;2022-11-21T07:58:03;97032.00;;;3.71;93.97
72525;BME280;60547;48.502;8.996;2022-11-21T08:00:30;97068.13;;;4.04;94.56
72525;BME280;60547;48.502;8.996;2022-11-21T08:02:56;97069.59;;;4.12;94.47
72525;BME280;60547;48.502;8.996;2022-11-21T08:05:22;97067.31;;;4.07;95.25
72525;BME280;60547;48.502;8.996;2022-11-21T08:07:48;97071.25;;;4.06;95.18
72525;BME280;60547;48.502;8.996;2022-11-21T08:10:14;97077.44;;;4.13;94.58
72525;BME280;60547;48.502;8.996;2022-11-21T08:12:40;97072.66;;;4.17;94.20
72525;BME280;60547;48.502;8.996;2022-11-21T08:15:06;97076.41;;;4.31;93.90
72525;BME280;60547;48.502;8.996;2022-11-21T08:17:31;97073.19;;;4.36;94.81
72525;BME280;60547;48.502;8.996;2022-11-21T08:19:57;97067.63;;;4.39;94.61
72525;BME280;60547;48.502;8.996;2022-11-21T08:22:25;97079.22;;;4.54;94.81
72525;BME280;60547;48.502;8.996;2022-11-21T08:24:50;97064.53;;;4.61;95.13
72525;BME280;60547;48.502;8.996;2022-11-21T08:27:15;97065.63;;;4.67;94.09
72525;BME280;60547;48.502;8.996;2022-11-21T08:29:45;97068.56;;;4.79;92.90
72525;BME280;60547;48.502;8.996;2022-11-21T08:32:10;97072.41;;;4.85;92.17
72525;BME280;60547;48.502;8.996;2022-11-21T08:34:36;97078.47;;;5.00;91.51
72525;BME280;60547;48.502;8.996;2022-11-21T08:37:01;97061.03;;;5.07;89.84
72525;BME280;60547;48.502;8.996;2022-11-21T08:39:27;97070.22;;;5.20;90.25
72525;BME280;60547;48.502;8.996;2022-11-21T08:41:55;97067.56;;;5.36;90.88
72525;BME280;60547;48.502;8.996;2022-11-21T08:44:30;97059.53;;;5.45;89.63
72525;BME280;60547;48.502;8.996;2022-11-21T08:46:56;97044.75;;;5.56;88.76
72525;BME280;60547;48.502;8.996;2022-11-21T08:49:22;97058.81;;;5.81;88.97
72525;BME280;60547;48.502;8.996;2022-11-21T08:51:48;97064.56;;;5.90;87.30
72525;BME280;60547;48.502;8.996;2022-11-21T08:54:15;97059.81;;;5.71;87.68
72525;BME280;60547;48.502;8.996;2022-11-21T08:56:41;97067.34;;;5.90;86.36
72525;BME280;60547;48.502;8.996;2022-11-21T08:59:06;97056.47;;;5.79;85.78
72525;BME280;60547;48.502;8.996;2022-11-21T09:01:31;97045.09;;;5.77;85.70
72525;BME280;60547;48.502;8.996;2022-11-21T09:03:57;97046.91;;;5.84;86.21
72525;BME280;60547;48.502;8.996;2022-11-21T09:06:22;97045.59;;;5.72;84.64
72525;BME280;60547;48.502;8.996;2022-11-21T09:08:48;97035.31;;;5.73;84.20
72525;BME280;60547;48.502;8.996;2022-11-21T09:11:13;97048.56;;;5.81;83.75
72525;BME280;60547;48.502;8.996;2022-11-21T09:13:38;97039.22;;;5.75;84.90
72525;BME280;60547;48.502;8.996;2022-11-21T09:16:04;97037.75;;;5.91;85.07
72525;BME280;60547;48.502;8.996;2022-11-21T09:18:51;97026.38;;;6.05;84.61
72525;BME280;60547;48.502;8.996;2022-11-21T09:21:17;97037.94;;;6.36;85.05
72525;BME280;60547;48.502;8.996;2022-11-21T09:23:43;97037.06;;;6.39;84.46
72525;BME280;60547;48.502;8.996;2022-11-21T09:26:09;97036.38;;;6.51;83.26
72525;BME280;60547;48.502;8.996;2022-11-21T09:28:35;97038.78;;;6.33;84.44
72525;BME280;60547;48.502;8.996;2022-11-21T09:31:02;97040.09;;;6.61;82.48
72525;BME280;60547;48.502;8.996;2022-11-21T09:33:27;97027.06;;;6.61;83.15
72525;BME280;60547;48.502;8.996;2022-11-21T09:35:53;97045.03;;;6.86;83.99
72525;BME280;60547;48.502;8.996;2022-11-21T09:38:18;97025.25;;;6.71;80.98
72525;BME280;60547;48.502;8.996;2022-11-21T09:40:45;97032.13;;;6.95;80.54
72525;BME280;60547;48.502;8.996;2022-11-21T09:43:33;97023.38;;;7.13;81.53
72525;BME280;60547;48.502;8.996;2022-11-21T09:46:10;97014.38;;;7.25;79.56
72525;BME280;60547;48.502;8.996;2022-11-21T09:48:55;97005.25;;;7.41;78.99
72525;BME280;60547;48.502;8.996;2022-11-21T09:51:23;97008.81;;;7.54;79.71
72525;BME280;60547;48.502;8.996;2022-11-21T09:56:18;96992.47;;;7.72;76.48
72525;BME280;60547;48.502;8.996;2022-11-21T09:58:48;96998.66;;;7.64;76.98
72525;BME280;60547;48.502;8.996;2022-11-21T10:01:16;96991.56;;;7.63;75.89
72525;BME280;60547;48.502;8.996;2022-11-21T10:03:47;96984.41;;;7.78;76.73
72525;BME280;60547;48.502;8.996;2022-11-21T10:06:21;96970.47;;;7.94;76.56
72525;BME280;60547;48.502;8.996;2022-11-21T10:14:47;96951.19;;;8.29;71.85
72525;BME280;60547;48.502;8.996;2022-11-21T10:17:23;96949.97;;;8.30;73.92
72525;BME280;60547;48.502;8.996;2022-11-21T10:25:38;96926.56;;;8.56;73.14
72525;BME280;60547;48.502;8.996;2022-11-21T10:28:18;96917.00;;;8.57;73.47
72525;BME280;60547;48.502;8.996;2022-11-21T10:30:45;96929.94;;;8.73;71.95
72525;BME280;60547;48.502;8.996;2022-11-21T10:33:18;96919.47;;;8.90;70.86
72525;BME280;60547;48.502;8.996;2022-11-21T10:35:50;96924.28;;;8.77;71.32
72525;BME280;60547;48.502;8.996;2022-11-21T10:38:21;96920.72;;;8.76;71.32
72525;BME280;60547;48.502;8.996;2022-11-21T10:40:51;96914.00;;;8.99;71.65
72525;BME280;60547;48.502;8.996;2022-11-21T10:43:23;96920.19;;;9.03;70.13
72525;BME280;60547;48.502;8.996;2022-11-21T10:46:09;96902.13;;;9.20;69.11
72525;BME280;60547;48.502;8.996;2022-11-21T10:48:34;96894.63;;;9.30;68.03
72525;BME280;60547;48.502;8.996;2022-11-21T10:53:39;96897.44;;;9.61;66.40
72525;BME280;60547;48.502;8.996;2022-11-21T10:56:25;96900.31;;;9.79;67.51
72525;BME280;60547;48.502;8.996;2022-11-21T10:58:54;96890.56;;;9.75;66.41
72525;BME280;60547;48.502;8.996;2022-11-21T11:01:29;96885.50;;;9.82;67.40
72525;BME280;60547;48.502;8.996;2022-11-21T11:06:31;96876.28;;;9.32;68.16
72525;BME280;60547;48.502;8.996;2022-11-21T11:08:57;96872.16;;;8.71;67.04
72525;BME280;60547;48.502;8.996;2022-11-21T11:11:23;96873.47;;;8.80;68.48
72525;BME280;60547;48.502;8.996;2022-11-21T11:14:00;96862.22;;;9.27;68.43
72525;BME280;60547;48.502;8.996;2022-11-21T11:16:27;96844.13;;;9.44;68.94
72525;BME280;60547;48.502;8.996;2022-11-21T11:19:00;96856.41;;;9.65;67.00
72525;BME280;60547;48.502;8.996;2022-11-21T11:21:28;96848.06;;;9.65;66.77
72525;BME280;60547;48.502;8.996;2022-11-21T11:26:34;96832.78;;;9.60;66.55
72525;BME280;60547;48.502;8.996;2022-11-21T11:29:21;96825.78;;;9.47;65.51
72525;BME280;60547;48.502;8.996;2022-11-21T11:32:16;96821.69;;;9.60;65.96
72525;BME280;60547;48.502;8.996;2022-11-21T11:34:58;96816.06;;;9.91;65.76
72525;BME280;60547;48.502;8.996;2022-11-21T11:37:51;96807.91;;;9.97;65.42
72525;BME280;60547;48.502;8.996;2022-11-21T11:40:39;96803.00;;;10.19;64.17
72525;BME280;60547;48.502;8.996;2022-11-21T11:43:38;96799.13;;;10.08;63.54
72525;BME280;60547;48.502;8.996;2022-11-21T11:49:33;96789.06;;;9.92;61.80
72525;BME280;60547;48.502;8.996;2022-11-21T11:52:22;96777.69;;;10.17;63.27
72525;BME280;60547;48.502;8.996;2022-11-21T11:54:55;96779.03;;;10.03;61.83
72525;BME280;60547;48.502;8.996;2022-11-21T11:57:22;96784.38;;;9.70;64.08
72525;BME280;60547;48.502;8.996;2022-11-21T12:00:01;96770.25;;;9.47;64.55
72525;BME280;60547;48.502;8.996;2022-11-21T12:02:39;96775.31;;;9.08;65.47
72525;BME280;60547;48.502;8.996;2022-11-21T12:05:16;96768.66;;;9.05;66.10
72525;BME280;60547;48.502;8.996;2022-11-21T12:07:54;96762.34;;;9.05;66.50
72525;BME280;60547;48.502;8.996;2022-11-21T12:10:49;96763.03;;;9.18;66.02
72525;BME280;60547;48.502;8.996;2022-11-21T12:13:37;96752.53;;;9.13;64.27
72525;BME280;60547;48.502;8.996;2022-11-21T12:16:09;96741.50;;;9.31;64.60
72525;BME280;60547;48.502;8.996;2022-11-21T12:18:50;96730.13;;;9.38;65.24
72525;BME280;60547;48.502;8.996;2022-11-21T12:21:18;96725.22;;;9.12;65.73
72525;BME280;60547;48.502;8.996;2022-11-21T12:23:55;96716.38;;;9.35;66.37
72525;BME280;60547;48.502;8.996;2022-11-21T12:26:30;96716.72;;;9.46;63.40
72525;BME280;60547;48.502;8.996;2022-11-21T12:29:31;96705.94;;;9.08;65.17
72525;BME280;60547;48.502;8.996;2022-11-21T12:45:35;96662.63;;;9.11;67.78
72525;BME280;60547;48.502;8.996;2022-11-21T12:48:24;96658.78;;;9.17;67.59
72525;BME280;60547;48.502;8.996;2022-11-21T12:55:35;96654.84;;;9.36;65.47
72525;BME280;60547;48.502;8.996;2022-11-21T13:00:25;96649.47;;;9.51;65.64
72525;BME280;60547;48.502;8.996;2022-11-21T13:03:02;96639.16;;;9.70;64.85
72525;BME280;60547;48.502;8.996;2022-11-21T13:05:35;96634.53;;;9.85;65.22
72525;BME280;60547;48.502;8.996;2022-11-21T13:08:09;96613.06;;;10.04;64.55
72525;BME280;60547;48.502;8.996;2022-11-21T13:10:37;96604.25;;;10.15;63.67
72525;BME280;60547;48.502;8.996;2022-11-21T13:13:27;96612.44;;;10.18;63.44
72525;BME280;60547;48.502;8.996;2022-11-21T13:16:09;96596.22;;;10.17;62.25
72525;BME280;60547;48.502;8.996;2022-11-21T13:18:45;96583.25;;;10.14;63.56
72525;BME280;60547;48.502;8.996;2022-11-21T13:21:38;96588.97;;;10.28;63.55
72525;BME280;60547;48.502;8.996;2022-11-21T13:24:06;96581.41;;;10.20;60.21
72525;BME280;60547;48.502;8.996;2022-11-21T13:29:16;96592.41;;;9.68;64.41
72525;BME280;60547;48.502;8.996;2022-11-21T13:31:41;96585.91;;;9.53;65.51
72525;BME280;60547;48.502;8.996;2022-11-21T13:36:57;96571.38;;;9.22;66.94
72525;BME280;60547;48.502;8.996;2022-11-21T13:39:30;96574.44;;;9.05;68.38
72525;BME280;60547;48.502;8.996;2022-11-21T13:41:57;96572.41;;;8.97;68.06
72525;BME280;60547;48.502;8.996;2022-11-21T13:44:41;96552.19;;;8.87;65.22
72525;BME280;60547;48.502;8.996;2022-11-21T14:04:25;96547.72;;;8.81;69.69
72525;BME280;60547;48.502;8.996;2022-11-21T14:06:54;96531.06;;;8.71;67.15
72525;BME280;60547;48.502;8.996;2022-11-21T14:09:23;96524.88;;;8.67;66.99
72525;BME280;60547;48.502;8.996;2022-11-21T14:11:52;96525.03;;;8.64;67.46
72525;BME280;60547;48.502;8.996;2022-11-21T14:14:31;96520.84;;;8.59;68.67
72525;BME280;60547;48.502;8.996;2022-11-21T14:19:40;96507.88;;;8.47;68.55
72525;BME280;60547;48.502;8.996;2022-11-21T14:22:15;96511.88;;;8.46;68.08
72525;BME280;60547;48.502;8.996;2022-11-21T14:24:41;96501.06;;;8.39;69.68
72525;BME280;60547;48.502;8.996;2022-11-21T14:27:15;96499.53;;;8.38;69.10
72525;BME280;60547;48.502;8.996;2022-11-21T14:29:46;96493.97;;;8.38;70.11
72525;BME280;60547;48.502;8.996;2022-11-21T14:32:15;96479.56;;;8.21;68.43
72525;BME280;60547;48.502;8.996;2022-11-21T14:34:40;96475.41;;;8.17;70.11
72525;BME280;60547;48.502;8.996;2022-11-21T14:37:06;96473.25;;;8.21;71.56